Time;durP1;ratioP1;P1;durP2;ratioP2;P2;SDS_P1;SDS_P2;PMS_P1;PMS_P2;Temp;Humidity;BMP_temperature;BMP_pressure;BME280_temperature;BME280_humidity;BME280_pressure;Samples;Min_cycle;Max_cycle;Signal;HPM_P1;HPM_P2
2022/10/02 00:00:21;;;;;;;8.27;1.25;;;11.50;99.90;;;;;;5097129;28;20416;-73
2022/10/02 00:03:01;;;;;;;8.82;1.40;;;11.50;99.90;;;;;;5085663;28;20934;-74
2022/10/02 00:05:34;;;;;;;9.32;1.17;;;11.50;99.90;;;;;;5107581;27;20413;-73
2022/10/02 00:08:21;;;;;;;7.30;1.13;;;11.50;99.90;;;;;;5109910;27;20408;-74
2022/10/02 00:11:25;;;;;;;6.97;1.10;;;11.50;99.90;;;;;;5110478;27;20488;-73
2022/10/02 00:13:55;;;;;;;7.82;1.13;;;11.50;99.90;;;;;;5083514;28;20418;-73
2022/10/02 00:16:30;;;;;;;6.70;0.83;;;11.50;99.90;;;;;;5105372;27;20488;-74
2022/10/02 00:18:56;;;;;;;5.97;1.23;;;11.50;99.90;;;;;;5110986;27;20408;-74
2022/10/02 00:21:54;;;;;;;5.65;0.77;;;11.50;99.90;;;;;;5110003;27;20427;-73
2022/10/02 00:24:31;;;;;;;6.40;1.00;;;11.50;99.90;;;;;;5110048;27;20417;-74
2022/10/02 00:27:14;;;;;;;7.20;1.30;;;11.60;99.90;;;;;;5109576;27;20869;-74
2022/10/02 00:29:51;;;;;;;7.90;1.15;;;11.60;99.90;;;;;;5108499;27;20424;-73
2022/10/02 00:32:26;;;;;;;5.40;0.95;;;11.70;99.90;;;;;;5108421;27;20463;-73
2022/10/02 00:35:13;;;;;;;6.35;1.00;;;11.70;99.90;;;;;;5124446;27;20464;-73
2022/10/02 00:38:12;;;;;;;8.02;0.85;;;11.80;99.90;;;;;;5128398;27;20446;-73
2022/10/02 00:41:18;;;;;;;6.38;1.20;;;11.80;99.90;;;;;;5109107;27;20877;-73
2022/10/02 00:44:02;;;;;;;6.27;0.73;;;11.80;99.90;;;;;;5128087;27;20761;-73
2022/10/02 00:46:37;;;;;;;5.40;1.00;;;11.80;99.90;;;;;;5128257;27;20410;-73
2022/10/02 00:49:39;;;;;;;6.40;0.82;;;11.80;99.90;;;;;;5126946;27;20879;-73
2022/10/02 00:52:23;;;;;;;5.57;1.10;;;11.70;99.90;;;;;;5057209;28;20883;-73
2022/10/02 00:55:07;;;;;;;7.18;1.08;;;11.70;99.90;;;;;;5102246;27;21817;-73
2022/10/02 00:57:54;;;;;;;7.75;1.73;;;11.60;99.90;;;;;;5126982;27;20415;-73
2022/10/02 01:00:21;;;;;;;9.40;1.30;;;11.60;99.90;;;;;;5128019;27;20768;-74
2022/10/02 01:02:56;;;;;;;10.20;1.70;;;11.60;99.90;;;;;;5125881;27;20846;-73
2022/10/02 01:05:22;;;;;;;7.28;2.05;;;11.50;99.90;;;;;;5126055;27;20410;-73
2022/10/02 01:07:51;;;;;;;13.85;2.78;;;11.50;99.90;;;;;;5127979;27;20518;-73
2022/10/02 01:10:18;;;;;;;11.60;2.20;;;11.50;99.90;;;;;;5125737;27;20456;-73
2022/10/02 01:12:44;;;;;;;9.80;2.38;;;11.50;99.90;;;;;;5127984;27;20397;-73
2022/10/02 01:15:15;;;;;;;14.88;2.60;;;11.40;99.90;;;;;;5127011;27;20768;-73
2022/10/02 01:17:41;;;;;;;12.07;2.53;;;11.40;99.90;;;;;;5128447;27;20413;-73
2022/10/02 01:20:14;;;;;;;12.68;2.95;;;11.40;99.90;;;;;;5127962;27;20399;-73
2022/10/02 01:23:03;;;;;;;13.07;2.83;;;11.40;99.90;;;;;;5127894;27;20403;-73
2022/10/02 01:25:28;;;;;;;15.18;2.78;;;11.40;99.90;;;;;;5127551;27;20489;-73
2022/10/02 01:27:54;;;;;;;12.07;3.08;;;11.40;99.90;;;;;;5128222;27;20529;-73
2022/10/02 01:30:21;;;;;;;15.23;3.10;;;11.30;99.90;;;;;;5127382;27;20422;-75
2022/10/02 01:32:50;;;;;;;11.57;3.03;;;11.30;99.90;;;;;;5115379;27;20980;-73
2022/10/02 01:35:19;;;;;;;15.60;3.15;;;11.30;99.90;;;;;;5107512;28;20408;-74
2022/10/02 01:37:45;;;;;;;12.05;2.90;;;11.30;99.90;;;;;;5106995;28;20404;-73
2022/10/02 01:40:30;;;;;;;14.77;3.53;;;11.30;99.90;;;;;;5107708;28;20437;-73
2022/10/02 01:43:02;;;;;;;14.77;3.20;;;11.30;99.90;;;;;;5122714;27;20434;-73
2022/10/02 01:45:37;;;;;;;13.52;2.80;;;11.30;99.90;;;;;;5127676;27;20908;-73
2022/10/02 01:48:42;;;;;;;16.45;2.90;;;11.20;99.90;;;;;;5126663;27;20454;-73
2022/10/02 01:51:13;;;;;;;12.38;2.88;;;11.20;99.90;;;;;;5126174;27;20522;-74
2022/10/02 01:54:10;;;;;;;12.50;2.95;;;11.20;99.90;;;;;;5127569;27;20892;-73
2022/10/02 01:57:03;;;;;;;13.07;3.00;;;11.20;99.90;;;;;;5104364;28;20424;-74
2022/10/02 02:00:09;;;;;;;14.95;2.95;;;11.20;99.90;;;;;;5126717;27;20407;-73
2022/10/02 02:02:56;;;;;;;13.30;2.88;;;11.10;99.90;;;;;;5130159;27;20407;-73
2022/10/02 02:05:39;;;;;;;17.80;3.10;;;11.00;99.90;;;;;;5129916;27;20475;-73
2022/10/02 02:08:12;;;;;;;12.43;2.93;;;11.00;99.90;;;;;;5131128;27;20497;-73
2022/10/02 02:10:54;;;;;;;14.50;3.05;;;11.00;99.90;;;;;;5130353;27;20398;-74
2022/10/02 02:13:48;;;;;;;14.23;3.00;;;11.00;99.90;;;;;;5131321;27;20494;-73
2022/10/02 02:16:41;;;;;;;15.23;3.00;;;11.00;99.90;;;;;;5129680;27;20450;-74
2022/10/02 02:19:28;;;;;;;13.00;2.60;;;11.00;99.90;;;;;;5105433;27;20411;-73
2022/10/02 02:22:10;;;;;;;13.43;2.90;;;11.00;99.90;;;;;;5129633;27;20407;-74
2022/10/02 02:24:51;;;;;;;16.13;2.60;;;10.90;99.90;;;;;;5129540;27;20445;-73
2022/10/02 02:27:21;;;;;;;10.27;2.80;;;11.00;99.90;;;;;;5097023;28;20422;-73
2022/10/02 02:29:50;;;;;;;16.67;3.05;;;10.90;99.90;;;;;;5125946;27;20508;-73
2022/10/02 02:32:21;;;;;;;15.10;2.45;;;10.90;99.90;;;;;;5122252;27;20453;-74
2022/10/02 02:34:53;;;;;;;14.60;3.03;;;10.90;99.90;;;;;;5111249;27;20832;-72
2022/10/02 02:37:23;;;;;;;16.38;2.80;;;10.90;99.90;;;;;;5111217;27;20397;-72
2022/10/02 02:39:56;;;;;;;14.50;3.00;;;10.90;99.90;;;;;;5110800;27;20416;-73
2022/10/02 02:42:26;;;;;;;14.40;2.78;;;10.80;99.90;;;;;;5111348;27;20435;-72
2022/10/02 02:44:59;;;;;;;11.15;2.70;;;10.90;99.90;;;;;;5111533;27;20508;-73
2022/10/02 02:47:39;;;;;;;15.82;2.33;;;10.90;99.90;;;;;;5110840;27;20781;-73
2022/10/02 02:50:15;;;;;;;15.02;2.92;;;10.90;99.90;;;;;;5097526;28;20512;-73
2022/10/02 02:52:47;;;;;;;14.63;2.88;;;10.90;99.90;;;;;;5111653;27;20852;-73
2022/10/02 02:55:39;;;;;;;13.93;2.77;;;11.00;99.90;;;;;;5110687;27;20807;-73
2022/10/02 02:58:12;;;;;;;15.10;2.35;;;11.00;99.90;;;;;;5102804;28;20416;-72
2022/10/02 03:00:38;;;;;;;15.27;2.42;;;11.00;99.90;;;;;;5110476;28;20396;-73
2022/10/02 03:03:04;;;;;;;14.23;2.35;;;11.10;99.90;;;;;;5110331;27;20411;-73
2022/10/02 03:05:31;;;;;;;17.77;2.95;;;11.10;99.90;;;;;;5130576;27;20426;-74
2022/10/02 03:08:02;;;;;;;12.25;2.15;;;11.20;99.90;;;;;;5117323;27;20451;-74
2022/10/02 03:11:10;;;;;;;15.00;2.60;;;11.30;99.90;;;;;;5115258;27;20998;-73
2022/10/02 03:14:06;;;;;;;11.93;2.13;;;11.30;99.90;;;;;;5087061;28;21380;-72
2022/10/02 03:16:38;;;;;;;15.03;2.43;;;11.30;99.90;;;;;;5122497;27;20432;-72
2022/10/02 03:19:27;;;;;;;14.40;2.45;;;11.30;99.90;;;;;;5110040;28;20405;-72
2022/10/02 03:22:08;;;;;;;14.77;1.92;;;11.40;99.90;;;;;;5119613;27;20407;-72
2022/10/02 03:25:03;;;;;;;14.65;2.70;;;11.50;99.90;;;;;;5128539;27;20422;-73
2022/10/02 03:27:40;;;;;;;15.07;3.03;;;11.50;99.90;;;;;;5117734;27;20608;-73
2022/10/02 03:30:12;;;;;;;15.10;2.35;;;11.50;99.90;;;;;;5125129;27;20422;-73
2022/10/02 03:32:41;;;;;;;10.45;1.70;;;11.60;99.90;;;;;;5114288;27;20461;-74
2022/10/02 03:35:11;;;;;;;11.60;2.30;;;11.50;99.90;;;;;;5123963;27;20399;-72
2022/10/02 03:37:39;;;;;;;13.20;2.30;;;11.60;99.90;;;;;;5091776;28;20412;-73
2022/10/02 03:40:06;;;;;;;12.23;2.83;;;11.60;99.90;;;;;;5128405;27;20413;-74
2022/10/02 03:42:34;;;;;;;18.63;2.80;;;11.60;99.90;;;;;;5129432;27;20422;-72
2022/10/02 03:45:00;;;;;;;15.18;2.08;;;11.50;99.90;;;;;;5129810;27;20395;-72
2022/10/02 03:47:25;;;;;;;12.70;2.43;;;11.50;99.90;;;;;;5129564;27;20463;-72
2022/10/02 03:49:51;;;;;;;18.23;2.38;;;11.50;99.90;;;;;;5111298;27;20428;-74
2022/10/02 03:52:20;;;;;;;16.75;2.40;;;11.50;99.90;;;;;;5108027;27;20423;-74
2022/10/02 03:54:54;;;;;;;20.15;2.65;;;11.40;99.90;;;;;;5108470;28;20419;-74
2022/10/02 03:57:22;;;;;;;15.00;2.60;;;11.40;99.90;;;;;;5113501;27;20404;-73
2022/10/02 04:00:05;;;;;;;13.63;2.63;;;11.40;99.90;;;;;;5107221;28;20918;-73
2022/10/02 04:02:51;;;;;;;13.77;1.90;;;11.40;99.90;;;;;;5109416;28;20451;-72
2022/10/02 04:05:34;;;;;;;13.98;2.30;;;11.40;99.90;;;;;;5128605;27;20422;-73
2022/10/02 04:08:15;;;;;;;13.65;2.13;;;11.50;99.90;;;;;;5115424;27;20406;-73
2022/10/02 04:11:03;;;;;;;12.03;2.30;;;11.50;99.90;;;;;;5117977;27;20409;-74
2022/10/02 04:14:14;;;;;;;13.20;2.30;;;11.50;99.90;;;;;;5102250;27;20399;-74
2022/10/02 04:16:49;;;;;;;12.60;1.92;;;11.50;99.90;;;;;;5086302;28;20409;-74
2022/10/02 04:19:36;;;;;;;13.90;2.20;;;11.50;99.90;;;;;;5108668;28;20941;-74
2022/10/02 04:22:13;;;;;;;15.98;2.50;;;11.50;99.90;;;;;;5107578;28;20404;-73
2022/10/02 04:24:53;;;;;;;13.40;2.00;;;11.40;99.90;;;;;;5108363;28;20749;-73
2022/10/02 04:27:30;;;;;;;9.02;2.00;;;11.40;99.90;;;;;;5108980;27;20436;-74
2022/10/02 04:30:01;;;;;;;14.73;2.45;;;11.40;99.90;;;;;;5107325;27;20440;-73
2022/10/02 04:32:32;;;;;;;10.80;2.13;;;11.40;99.90;;;;;;5107349;28;20404;-74
2022/10/02 04:34:59;;;;;;;17.13;2.65;;;11.40;99.90;;;;;;5108296;28;20393;-74
2022/10/02 04:37:35;;;;;;;15.63;2.80;;;11.40;99.90;;;;;;5108821;27;20400;-74
2022/10/02 04:40:25;;;;;;;14.98;2.08;;;11.50;99.90;;;;;;5113265;27;21060;-74
2022/10/02 04:42:55;;;;;;;16.27;2.70;;;11.50;99.90;;;;;;5127945;27;20410;-74
2022/10/02 04:45:55;;;;;;;16.63;2.25;;;11.40;99.90;;;;;;5128747;27;20880;-74
2022/10/02 04:48:35;;;;;;;16.33;2.28;;;11.40;99.90;;;;;;5108168;27;20410;-74
2022/10/02 04:51:12;;;;;;;17.30;2.30;;;11.40;99.90;;;;;;5128557;27;20474;-73
2022/10/02 04:54:15;;;;;;;14.60;2.00;;;11.40;99.90;;;;;;5100428;27;20467;-72
2022/10/02 04:56:55;;;;;;;13.52;2.17;;;11.40;99.90;;;;;;5127750;27;20411;-73
2022/10/02 04:59:40;;;;;;;11.67;1.87;;;11.40;99.90;;;;;;5128094;27;20489;-73
2022/10/02 05:02:38;;;;;;;14.20;2.30;;;11.40;99.90;;;;;;5126921;27;20407;-75
2022/10/02 05:05:34;;;;;;;16.73;2.33;;;11.30;99.90;;;;;;5101838;28;20869;-74
2022/10/02 05:08:37;;;;;;;16.30;2.20;;;11.30;99.90;;;;;;5106945;28;20409;-74
2022/10/02 05:11:15;;;;;;;16.50;2.63;;;11.30;99.90;;;;;;5108008;27;20406;-76
2022/10/02 05:14:07;;;;;;;14.32;2.00;;;11.30;99.90;;;;;;5127620;27;20410;-72
2022/10/02 05:16:36;;;;;;;20.27;1.95;;;11.30;99.90;;;;;;5125068;27;20407;-74
2022/10/02 05:19:04;;;;;;;16.73;2.33;;;11.30;99.90;;;;;;5126607;27;20419;-74
2022/10/02 05:21:39;;;;;;;13.55;2.03;;;11.30;99.90;;;;;;5126652;27;20413;-73
2022/10/02 05:24:28;;;;;;;20.03;2.47;;;11.20;99.90;;;;;;5127331;27;20989;-73
2022/10/02 05:27:12;;;;;;;14.82;2.08;;;11.20;99.90;;;;;;5126965;27;20418;-73
2022/10/02 05:30:04;;;;;;;18.30;2.38;;;11.20;99.90;;;;;;5125997;27;20855;-73
2022/10/02 05:32:59;;;;;;;16.77;2.42;;;11.20;99.90;;;;;;5127348;27;20467;-72
2022/10/02 05:35:51;;;;;;;15.07;1.77;;;11.20;99.90;;;;;;5107899;27;20456;-73
2022/10/02 05:38:19;;;;;;;16.95;2.53;;;11.20;99.90;;;;;;5116246;27;20412;-73
2022/10/02 05:41:02;;;;;;;18.52;2.17;;;11.10;99.90;;;;;;5112295;27;20431;-73
2022/10/02 05:43:41;;;;;;;15.45;1.88;;;11.10;99.90;;;;;;5115456;27;20395;-74
2022/10/02 05:46:13;;;;;;;15.93;3.00;;;11.10;99.90;;;;;;5125133;27;20463;-73
2022/10/02 05:48:53;;;;;;;16.17;2.10;;;11.10;99.90;;;;;;5123815;27;20426;-73
2022/10/02 05:51:42;;;;;;;20.52;2.33;;;11.10;99.90;;;;;;5131271;27;20447;-73
2022/10/02 05:54:29;;;;;;;15.18;1.92;;;11.10;99.90;;;;;;5128512;27;20897;-73
2022/10/02 05:57:12;;;;;;;19.00;2.58;;;11.10;99.90;;;;;;5110635;28;20420;-73
2022/10/02 05:59:56;;;;;;;16.52;2.15;;;11.00;99.90;;;;;;5107007;27;20839;-72
2022/10/02 06:02:51;;;;;;;16.53;2.37;;;11.00;99.90;;;;;;5131340;27;20918;-74
2022/10/02 06:05:25;;;;;;;22.85;2.65;;;11.10;99.90;;;;;;5124653;27;20400;-73
2022/10/02 06:07:57;;;;;;;15.68;2.00;;;11.00;99.90;;;;;;5144695;27;20398;-73
2022/10/02 06:10:33;;;;;;;21.13;2.72;;;11.00;99.90;;;;;;5140847;27;20433;-73
2022/10/02 06:13:14;;;;;;;14.68;2.13;;;11.00;99.90;;;;;;5123585;28;20444;-73
2022/10/02 06:16:07;;;;;;;14.17;1.70;;;11.00;99.90;;;;;;5122935;28;20396;-73
2022/10/02 06:18:35;;;;;;;18.63;2.15;;;11.00;99.90;;;;;;5111858;28;20414;-73
2022/10/02 06:21:09;;;;;;;13.55;2.05;;;11.00;99.90;;;;;;5117529;27;20901;-74
2022/10/02 06:23:42;;;;;;;12.18;2.40;;;10.90;99.90;;;;;;5111432;27;20416;-73
2022/10/02 06:26:26;;;;;;;16.75;2.22;;;11.00;99.90;;;;;;5112187;27;20405;-72
2022/10/02 06:29:00;;;;;;;18.67;2.70;;;11.00;99.90;;;;;;5112708;27;20459;-74
2022/10/02 06:31:46;;;;;;;14.52;2.42;;;11.00;99.90;;;;;;5111238;28;20898;-73
2022/10/02 06:34:13;;;;;;;19.75;2.22;;;11.00;99.90;;;;;;5111269;27;20409;-72
2022/10/02 06:37:00;;;;;;;14.47;2.00;;;11.00;99.90;;;;;;5111689;27;20483;-73
2022/10/02 06:39:40;;;;;;;19.65;2.17;;;11.10;99.90;;;;;;5111719;28;20430;-72
2022/10/02 06:42:53;;;;;;;15.48;2.55;;;11.10;99.90;;;;;;5111202;27;20466;-73
2022/10/02 06:45:18;;;;;;;20.10;2.00;;;11.20;99.90;;;;;;5111927;27;20769;-73
2022/10/02 06:47:57;;;;;;;13.77;2.38;;;11.20;99.90;;;;;;5108939;28;20481;-73
2022/10/02 06:50:33;;;;;;;14.40;2.05;;;11.30;99.90;;;;;;5113367;27;20430;-74
2022/10/02 06:53:31;;;;;;;18.95;2.40;;;11.40;99.90;;;;;;5107262;27;20982;-73
2022/10/02 06:56:10;;;;;;;15.90;2.50;;;11.40;99.90;;;;;;5102986;28;20404;-75
2022/10/02 06:58:57;;;;;;;15.30;2.40;;;11.50;99.90;;;;;;5111679;27;20458;-74
2022/10/02 07:02:16;;;;;;;15.27;2.20;;;11.60;99.90;;;;;;5108207;28;20488;-74
2022/10/02 07:04:47;;;;;;;21.08;2.55;;;11.70;99.90;;;;;;5045317;28;20415;-74
2022/10/02 07:07:18;;;;;;;17.90;2.42;;;11.80;99.90;;;;;;5066024;28;21106;-74
2022/10/02 07:09:53;;;;;;;16.45;2.35;;;11.90;99.90;;;;;;5088308;28;20535;-75
2022/10/02 07:12:25;;;;;;;13.63;2.10;;;11.90;99.90;;;;;;5107990;28;20978;-73
2022/10/02 07:14:50;;;;;;;12.35;2.00;;;12.00;99.90;;;;;;5109230;28;20424;-73
2022/10/02 07:17:31;;;;;;;10.52;2.08;;;12.00;99.90;;;;;;5112729;27;20478;-73
2022/10/02 07:20:22;;;;;;;11.82;1.48;;;12.00;99.90;;;;;;5109016;28;20400;-75
2022/10/02 07:23:12;;;;;;;10.87;1.53;;;12.00;99.90;;;;;;5108370;28;20408;-72
2022/10/02 07:25:57;;;;;;;9.55;1.50;;;11.90;99.90;;;;;;5120450;27;20460;-73
2022/10/02 07:28:38;;;;;;;12.83;2.07;;;12.00;99.90;;;;;;5100607;28;20492;-74
2022/10/02 07:31:19;;;;;;;12.63;2.22;;;11.90;99.90;;;;;;5110684;28;20491;-73
2022/10/02 07:34:00;;;;;;;10.45;1.30;;;11.90;99.90;;;;;;5110542;28;20449;-73
2022/10/02 07:36:29;;;;;;;13.57;1.75;;;12.00;99.90;;;;;;5100618;28;20401;-73
2022/10/02 07:39:07;;;;;;;16.10;2.10;;;11.90;99.90;;;;;;5110325;28;20416;-73
2022/10/02 07:42:04;;;;;;;11.23;1.58;;;11.90;99.90;;;;;;5110413;28;20751;-74
2022/10/02 07:44:29;;;;;;;13.80;2.07;;;11.90;99.90;;;;;;5098724;28;20405;-73
2022/10/02 07:47:27;;;;;;;13.70;1.60;;;11.90;99.90;;;;;;5109815;28;20495;-73
2022/10/02 07:50:09;;;;;;;12.40;1.80;;;11.90;99.90;;;;;;5106485;27;20433;-73
2022/10/02 07:52:55;;;;;;;18.10;1.97;;;11.90;99.90;;;;;;5112861;27;20405;-75
2022/10/02 07:55:23;;;;;;;11.63;1.65;;;12.00;99.90;;;;;;5115603;27;20408;-75
2022/10/02 07:58:18;;;;;;;14.13;1.92;;;12.00;99.90;;;;;;5107236;28;20408;-74
2022/10/02 08:00:49;;;;;;;16.90;2.28;;;12.10;99.90;;;;;;5103978;28;20412;-71
2022/10/02 08:03:23;;;;;;;15.87;2.63;;;12.20;99.90;;;;;;5105817;28;20906;-73
2022/10/02 08:05:52;;;;;;;15.93;3.00;;;12.40;99.90;;;;;;5108034;27;20906;-73
2022/10/02 08:08:42;;;;;;;18.40;2.10;;;12.50;99.90;;;;;;5106035;28;20488;-73
2022/10/02 08:11:12;;;;;;;17.83;3.10;;;12.60;99.90;;;;;;5113854;27;20969;-73
2022/10/02 08:13:56;;;;;;;14.70;2.30;;;12.70;99.90;;;;;;5109027;27;20409;-72
2022/10/02 08:16:37;;;;;;;12.77;2.37;;;12.70;99.90;;;;;;5106963;28;20452;-72
2022/10/02 08:19:16;;;;;;;18.25;2.97;;;12.80;99.90;;;;;;5105014;28;20862;-72
2022/10/02 08:21:47;;;;;;;13.87;2.37;;;12.80;99.90;;;;;;5112786;27;20929;-72
2022/10/02 08:24:14;;;;;;;16.77;2.00;;;12.90;99.90;;;;;;5099818;28;20456;-73
2022/10/02 08:26:54;;;;;;;19.35;2.40;;;13.00;99.90;;;;;;5102413;28;20412;-72
2022/10/02 08:29:28;;;;;;;12.00;2.10;;;13.10;99.90;;;;;;5103982;27;21017;-72
2022/10/02 08:31:55;;;;;;;10.85;2.08;;;13.20;99.90;;;;;;5107688;28;20796;-73
2022/10/02 08:34:23;;;;;;;12.27;2.08;;;13.30;99.90;;;;;;5108129;27;20486;-73
2022/10/02 08:37:28;;;;;;;16.17;2.60;;;13.50;99.90;;;;;;5109276;27;20552;-72
2022/10/02 08:40:29;;;;;;;12.38;2.10;;;13.60;99.90;;;;;;5106061;28;20424;-73
2022/10/02 08:43:07;;;;;;;16.90;2.33;;;13.70;99.90;;;;;;5105130;28;20432;-73
2022/10/02 08:46:01;;;;;;;14.10;2.03;;;13.80;99.90;;;;;;5099493;28;20439;-74
2022/10/02 08:48:53;;;;;;;10.93;1.60;;;13.90;99.90;;;;;;5107119;28;20538;-74
2022/10/02 08:51:23;;;;;;;11.98;1.85;;;14.10;99.90;;;;;;5113628;27;20411;-73
2022/10/02 08:54:07;;;;;;;11.35;1.90;;;14.10;99.90;;;;;;5108754;28;20906;-73
2022/10/02 08:57:12;;;;;;;14.93;2.08;;;14.10;99.90;;;;;;5108413;28;20832;-73
2022/10/02 08:59:59;;;;;;;11.52;1.98;;;14.20;99.90;;;;;;5108269;28;20474;-73
2022/10/02 09:02:49;;;;;;;11.85;1.52;;;14.30;99.90;;;;;;5107033;28;20432;-73
2022/10/02 09:05:52;;;;;;;9.77;1.73;;;14.40;99.90;;;;;;5107970;28;20822;-73
2022/10/02 09:08:59;;;;;;;9.02;1.60;;;14.50;99.90;;;;;;5096169;28;20404;-74
2022/10/02 09:11:46;;;;;;;9.82;1.77;;;14.50;99.90;;;;;;5107836;28;20400;-73
2022/10/02 09:14:27;;;;;;;8.02;1.55;;;14.70;99.90;;;;;;5108270;28;20427;-73
2022/10/02 09:17:22;;;;;;;7.10;1.10;;;15.50;99.90;;;;;;5108535;28;20457;-74
2022/10/02 09:20:04;;;;;;;9.80;1.20;;;16.20;99.90;;;;;;5097343;28;20440;-74
2022/10/02 09:22:33;;;;;;;9.05;1.52;;;16.90;99.90;;;;;;5107949;28;20409;-74
2022/10/02 09:25:21;;;;;;;7.75;1.48;;;17.50;99.90;;;;;;5108522;28;20491;-72
2022/10/02 09:28:07;;;;;;;7.13;1.23;;;18.10;99.90;;;;;;5095935;28;20404;-73
2022/10/02 09:30:51;;;;;;;8.30;1.23;;;18.10;99.90;;;;;;5107968;28;20794;-72
2022/10/02 09:33:46;;;;;;;6.10;1.10;;;18.50;99.90;;;;;;5108633;28;20415;-73
2022/10/02 09:36:40;;;;;;;8.68;1.23;;;18.80;99.90;;;;;;5083787;28;20412;-74
2022/10/02 09:39:38;;;;;;;7.57;0.95;;;19.70;99.90;;;;;;5097577;28;20761;-74
2022/10/02 09:42:14;;;;;;;8.07;1.45;;;20.40;99.90;;;;;;5106401;28;20434;-73
2022/10/02 09:44:57;;;;;;;10.23;1.50;;;20.90;99.90;;;;;;5108638;28;20409;-74
2022/10/02 09:48:08;;;;;;;6.93;1.30;;;21.20;99.90;;;;;;5108016;28;20427;-73
2022/10/02 09:50:48;;;;;;;9.15;1.40;;;21.60;99.90;;;;;;5105737;28;20790;-73
2022/10/02 09:53:59;;;;;;;9.38;1.33;;;22.00;99.90;;;;;;5104869;28;20428;-74
2022/10/02 09:56:44;;;;;;;9.02;1.48;;;22.20;99.90;;;;;;5089400;28;20416;-74
2022/10/02 09:59:28;;;;;;;8.87;1.30;;;22.30;99.90;;;;;;5108689;28;20413;-74
2022/10/02 10:02:16;;;;;;;8.37;1.33;;;22.00;99.90;;;;;;5105287;28;20435;-74
2022/10/02 10:05:24;;;;;;;7.20;1.27;;;21.20;99.90;;;;;;5104379;28;20420;-74
2022/10/02 10:07:53;;;;;;;10.35;1.58;;;20.80;99.90;;;;;;5106660;28;20416;-73
2022/10/02 10:10:38;;;;;;;8.98;1.70;;;20.50;99.90;;;;;;5107549;28;20503;-74
2022/10/02 10:13:14;;;;;;;9.85;1.38;;;20.90;99.90;;;;;;5090132;28;20910;-73
2022/10/02 10:16:18;;;;;;;9.25;1.27;;;21.30;99.90;;;;;;5109278;28;20408;-74
2022/10/02 10:18:47;;;;;;;6.30;1.10;;;21.60;99.90;;;;;;5118374;27;20459;-73
2022/10/02 10:21:31;;;;;;;8.90;1.40;;;21.60;99.90;;;;;;5127494;27;20448;-72
2022/10/02 10:24:31;;;;;;;8.43;1.40;;;21.40;99.90;;;;;;5130964;27;20414;-72
2022/10/02 10:27:21;;;;;;;10.02;1.60;;;21.40;99.90;;;;;;5129683;27;20407;-73
2022/10/02 10:30:14;;;;;;;7.93;1.40;;;21.70;99.90;;;;;;5122038;27;20445;-73
2022/10/02 10:33:28;;;;;;;10.43;1.83;;;22.20;99.90;;;;;;5099110;28;20755;-73
2022/10/02 10:39:19;;;;;;;8.95;1.65;;;22.80;98.80;;;;;;5109964;27;20498;-72
2022/10/02 10:42:09;;;;;;;10.27;1.60;;;22.20;98.00;;;;;;5130752;27;20802;-73
2022/10/02 10:44:50;;;;;;;10.82;1.63;;;21.10;99.30;;;;;;5116003;27;20461;-74
2022/10/02 10:47:37;;;;;;;10.88;1.60;;;20.00;99.90;;;;;;5131095;27;20401;-71
2022/10/02 10:50:09;;;;;;;12.00;1.60;;;19.50;99.90;;;;;;5130524;27;20437;-72
2022/10/02 10:53:02;;;;;;;10.73;1.55;;;19.70;99.90;;;;;;5112445;27;20965;-72
2022/10/02 10:55:56;;;;;;;12.40;1.48;;;20.30;99.90;;;;;;5100819;27;20913;-72
2022/10/02 10:58:31;;;;;;;10.85;1.90;;;20.60;99.90;;;;;;5130159;27;20399;-73
2022/10/02 11:01:37;;;;;;;11.37;1.90;;;21.40;99.90;;;;;;5116371;27;20558;-73
2022/10/02 11:04:30;;;;;;;8.00;1.77;;;22.20;99.90;;;;;;5129905;27;20407;-73
2022/10/02 11:07:12;;;;;;;7.40;1.60;;;22.70;97.10;;;;;;5110023;28;20405;-73
2022/10/02 11:09:41;;;;;;;10.13;1.48;;;22.90;95.00;;;;;;5129187;27;20426;-73
2022/10/02 11:12:38;;;;;;;9.68;1.65;;;23.00;95.80;;;;;;5129737;27;20481;-73
2022/10/02 11:15:07;;;;;;;9.45;1.40;;;23.10;95.10;;;;;;5108907;28;20767;-73
2022/10/02 11:17:59;;;;;;;8.77;1.55;;;23.10;94.30;;;;;;5123578;27;20465;-73
2022/10/02 11:21:15;;;;;;;7.28;1.20;;;23.20;95.30;;;;;;5123102;27;20892;-73
2022/10/02 11:23:47;;;;;;;7.10;1.23;;;23.60;94.20;;;;;;5072589;28;20462;-73
2022/10/02 11:26:33;;;;;;;7.30;1.20;;;23.20;92.90;;;;;;5122152;27;20510;-73
2022/10/02 11:29:09;;;;;;;8.57;1.45;;;23.40;93.00;;;;;;5129092;27;20423;-73
2022/10/02 11:32:00;;;;;;;8.20;1.70;;;23.50;91.70;;;;;;5130224;27;20480;-73
2022/10/02 11:35:05;;;;;;;8.73;1.60;;;22.60;91.20;;;;;;5107870;27;20486;-73
2022/10/02 11:37:55;;;;;;;5.55;0.90;;;21.40;92.50;;;;;;5127389;27;20477;-73
2022/10/02 11:41:08;;;;;;;7.68;1.27;;;20.70;93.40;;;;;;5110148;27;20403;-72
2022/10/02 11:44:07;;;;;;;10.38;1.70;;;20.20;94.10;;;;;;5128792;27;20399;-73
2022/10/02 11:46:47;;;;;;;9.32;1.33;;;20.20;94.30;;;;;;5127457;27;20410;-72
2022/10/02 11:49:25;;;;;;;7.70;1.20;;;20.20;95.00;;;;;;5128855;27;21006;-73
2022/10/02 11:52:09;;;;;;;7.93;1.20;;;20.70;93.50;;;;;;5128343;27;20406;-73
2022/10/02 11:55:02;;;;;;;8.80;1.48;;;20.40;93.10;;;;;;5126615;27;20784;-72
2022/10/02 11:58:06;;;;;;;8.73;1.45;;;19.90;94.00;;;;;;5104053;28;20427;-73
2022/10/02 12:00:55;;;;;;;7.78;1.10;;;20.60;94.70;;;;;;5108868;28;20411;-72
2022/10/02 12:03:35;;;;;;;7.45;1.33;;;21.50;93.40;;;;;;5109036;27;20403;-73
2022/10/02 12:06:32;;;;;;;9.50;1.73;;;22.30;93.20;;;;;;5108998;28;20906;-73
2022/10/02 12:09:36;;;;;;;7.55;1.40;;;22.70;91.40;;;;;;5109696;27;20418;-73
2022/10/02 12:12:31;;;;;;;8.13;1.75;;;22.90;90.60;;;;;;5097348;28;20440;-73
2022/10/02 12:15:22;;;;;;;10.80;1.63;;;23.30;90.90;;;;;;5109410;28;20902;-73
2022/10/02 12:18:26;;;;;;;7.85;1.63;;;23.70;91.00;;;;;;5124692;27;20473;-74
2022/10/02 12:27:44;;;;;;;9.75;1.70;;;22.40;89.90;;;;;;5116068;27;20436;-72
2022/10/02 12:30:13;;;;;;;10.05;1.50;;;21.90;90.30;;;;;;5107660;28;20581;-73
2022/10/02 12:33:00;;;;;;;7.07;0.90;;;22.50;91.00;;;;;;5128956;27;20407;-73
2022/10/02 12:35:41;;;;;;;9.60;1.65;;;22.80;89.00;;;;;;5128826;27;20452;-73
2022/10/02 12:38:25;;;;;;;7.97;1.35;;;22.00;89.60;;;;;;5128443;27;20403;-73
2022/10/02 12:41:07;;;;;;;9.32;1.35;;;21.50;90.40;;;;;;5105487;27;20911;-72
2022/10/02 12:43:53;;;;;;;5.82;1.15;;;21.90;90.70;;;;;;5111671;27;20806;-73
2022/10/02 12:46:45;;;;;;;7.45;1.45;;;21.60;90.70;;;;;;5108299;27;20424;-73
2022/10/02 12:49:28;;;;;;;9.57;1.60;;;21.00;90.70;;;;;;5107997;27;20509;-73
2022/10/02 12:52:31;;;;;;;8.63;1.57;;;20.30;91.60;;;;;;5117374;27;20496;-73
2022/10/02 12:55:43;;;;;;;9.60;1.35;;;20.40;92.00;;;;;;5110757;27;20422;-72
2022/10/02 12:58:42;;;;;;;12.05;1.30;;;21.60;91.70;;;;;;5112789;27;20419;-75
2022/10/02 13:01:49;;;;;;;7.70;1.25;;;22.60;90.30;;;;;;5103895;28;20459;-73
2022/10/02 13:04:26;;;;;;;9.07;1.50;;;23.20;88.80;;;;;;5107147;28;20937;-73
2022/10/02 13:07:12;;;;;;;7.82;1.27;;;23.80;85.20;;;;;;5116576;28;20443;-73
2022/10/02 13:09:37;;;;;;;8.65;1.45;;;23.20;85.30;;;;;;5112580;28;20926;-74
2022/10/02 13:12:19;;;;;;;8.70;1.60;;;22.00;87.20;;;;;;5108420;28;20427;-74
2022/10/02 13:15:12;;;;;;;9.40;1.77;;;21.30;89.20;;;;;;5108327;28;20424;-73
2022/10/02 13:17:57;;;;;;;8.83;1.30;;;21.60;90.60;;;;;;5107996;28;20412;-73
2022/10/02 13:20:42;;;;;;;9.70;1.75;;;22.60;90.10;;;;;;5107720;28;20491;-74
2022/10/02 13:23:32;;;;;;;9.00;1.58;;;23.20;87.60;;;;;;5107630;28;20419;-73
2022/10/02 13:26:28;;;;;;;10.43;1.80;;;22.90;87.30;;;;;;5108267;28;20415;-74
2022/10/02 13:29:05;;;;;;;10.98;2.00;;;22.50;86.40;;;;;;5108364;28;20436;-74
2022/10/02 13:31:52;;;;;;;9.93;1.38;;;21.70;88.20;;;;;;5104329;28;20424;-74
2022/10/02 13:34:40;;;;;;;11.85;1.73;;;21.10;89.50;;;;;;5096085;28;20408;-73
2022/10/02 13:37:24;;;;;;;13.90;2.03;;;20.30;90.40;;;;;;5094825;28;20437;-73
2022/10/02 13:40:11;;;;;;;8.60;1.88;;;19.80;91.70;;;;;;5107963;28;20404;-73
2022/10/02 13:43:08;;;;;;;10.02;1.63;;;19.60;92.40;;;;;;5099298;28;20466;-73
2022/10/02 13:45:48;;;;;;;9.33;1.87;;;19.30;92.70;;;;;;5106674;28;20523;-74
2022/10/02 13:48:44;;;;;;;10.52;1.50;;;19.10;93.10;;;;;;5107648;28;20423;-74
2022/10/02 13:51:23;;;;;;;11.03;2.00;;;19.00;93.50;;;;;;5106539;28;20431;-74
2022/10/02 13:54:23;;;;;;;12.27;1.80;;;18.90;93.90;;;;;;5099208;28;20483;-72
2022/10/02 13:56:48;;;;;;;12.10;2.00;;;19.00;93.70;;;;;;5107170;28;20413;-74
2022/10/02 13:59:43;;;;;;;10.63;1.90;;;19.10;93.80;;;;;;5111515;28;20520;-74
2022/10/02 14:02:50;;;;;;;9.48;1.70;;;19.10;94.40;;;;;;5113616;27;20405;-73
2022/10/02 14:05:29;;;;;;;11.48;2.20;;;19.00;94.00;;;;;;5106819;28;20413;-75
2022/10/02 14:08:20;;;;;;;8.40;1.73;;;18.90;94.40;;;;;;5110821;27;20404;-74
2022/10/02 14:11:14;;;;;;;10.13;1.98;;;18.90;94.00;;;;;;5108758;28;20424;-74